createdAt,value
2023-02-04T00:06:28.660Z,4.00
2023-02-04T00:52:32.031Z,3.80
2023-02-04T00:59:39.976Z,3.60
2023-02-04T01:02:11.805Z,3.60
2023-02-04T01:05:16.146Z,3.60
2023-02-04T01:19:23.429Z,3.50
2023-02-04T02:04:05.860Z,3.40
2023-02-04T02:07:24.941Z,3.50
2023-02-04T02:20:53.597Z,3.00
2023-02-04T02:23:54.010Z,2.90
2023-02-04T02:26:37.752Z,3.10
2023-02-04T02:34:28.937Z,3.00
2023-02-04T02:41:10.633Z,3.10
2023-02-04T02:44:55.959Z,3.30
2023-02-04T02:47:53.005Z,3.20
2023-02-04T02:51:18.851Z,3.30
2023-02-04T02:53:58.554Z,3.20
2023-02-04T02:56:40.772Z,3.00
2023-02-04T03:47:32.568Z,2.70
2023-02-04T03:50:50.256Z,2.70
2023-02-04T04:12:23.577Z,3.40
2023-02-04T04:16:11.599Z,3.30
2023-02-04T04:18:47.411Z,3.10
2023-02-04T04:25:14.728Z,2.90
2023-02-04T04:49:33.729Z,2.70
2023-02-04T05:07:02.421Z,3.00
2023-02-04T05:29:59.919Z,3.20
2023-02-04T05:33:25.536Z,2.90
2023-02-04T07:00:11.221Z,3.10
2023-02-04T08:46:56.246Z,7.40
2023-02-04T08:55:43.323Z,7.70
2023-02-04T08:58:31.299Z,7.80
2023-02-04T09:01:14.949Z,8.00
2023-02-04T09:07:45.355Z,7.90
2023-02-04T09:11:01.601Z,7.90
2023-02-04T09:14:03.138Z,7.90
2023-02-04T09:19:41.861Z,8.10
2023-02-04T09:22:25.549Z,8.20
2023-02-04T09:25:25.332Z,8.30
2023-02-04T09:27:58.977Z,8.10
2023-02-04T09:30:43.439Z,8.20
2023-02-04T09:36:17.616Z,8.40
2023-02-04T09:39:27.017Z,8.70
2023-02-04T09:42:16.240Z,8.80
2023-02-04T09:44:45.538Z,8.90
2023-02-04T09:47:44.841Z,9.10
2023-02-04T09:50:46.172Z,9.20
2023-02-04T09:58:00.910Z,9.20
2023-02-04T10:04:15.594Z,9.20
2023-02-04T10:10:31.174Z,9.70
2023-02-04T10:13:19.787Z,10.10
2023-02-04T10:15:55.401Z,10.20
2023-02-04T10:18:38.317Z,10.40
2023-02-04T10:21:18.028Z,10.50
2023-02-04T10:23:58.681Z,10.60
2023-02-04T10:26:58.526Z,10.60
2023-02-04T10:29:31.025Z,10.80
2023-02-04T10:31:58.879Z,10.80
2023-02-04T10:34:47.334Z,10.70
2023-02-04T10:37:25.385Z,10.90
2023-02-04T10:40:01.583Z,10.90
2023-02-04T10:42:47.003Z,11.00
2023-02-04T10:45:34.978Z,10.80
2023-02-04T10:48:15.325Z,11.10
2023-02-04T10:50:58.399Z,11.30
2023-02-04T10:53:57.815Z,11.50
2023-02-04T10:56:46.126Z,11.50
2023-02-04T10:59:29.685Z,11.50
2023-02-04T11:02:59.434Z,11.60
2023-02-04T11:05:39.282Z,11.80
2023-02-04T11:08:41.089Z,12.10
2023-02-04T11:11:29.941Z,12.50
2023-02-04T11:14:11.784Z,12.50
2023-02-04T11:17:01.042Z,12.70
2023-02-04T11:19:37.984Z,12.70
2023-02-04T11:22:21.685Z,12.70
2023-02-04T11:24:50.430Z,12.80
2023-02-04T11:27:37.726Z,13.20
2023-02-04T11:30:23.507Z,13.00
2023-02-04T11:33:03.059Z,13.20
2023-02-04T11:35:33.909Z,13.30
2023-02-04T11:38:05.013Z,13.20
2023-02-04T11:41:02.656Z,13.60
2023-02-04T11:43:37.618Z,13.80
2023-02-04T11:46:41.274Z,13.70
2023-02-04T11:49:41.818Z,14.10
2023-02-04T11:52:57.506Z,14.80
2023-02-04T11:55:59.220Z,15.20
2023-02-04T11:58:43.899Z,15.50
2023-02-04T12:01:35.968Z,15.20
2023-02-04T12:04:08.842Z,15.70
2023-02-04T12:07:33.886Z,16.10
2023-02-04T12:15:10.911Z,16.00
2023-02-04T12:18:04.638Z,20.40
2023-02-04T12:24:16.334Z,25.20
2023-02-04T12:27:14.386Z,25.50
2023-02-04T12:29:42.207Z,26.40
2023-02-04T12:32:47.886Z,24.70
2023-02-04T12:39:35.009Z,27.40
2023-02-04T12:42:45.314Z,29.20
2023-02-04T12:50:08.201Z,27.80
2023-02-04T13:02:11.145Z,29.60
2023-02-04T13:04:47.744Z,30.00
2023-02-04T13:07:34.656Z,28.70
2023-02-04T13:10:04.802Z,28.10
2023-02-04T13:12:33.707Z,29.00
2023-02-04T13:15:07.475Z,28.00
2023-02-04T13:17:42.869Z,26.20
2023-02-04T13:20:11.330Z,24.00
2023-02-04T13:22:39.747Z,21.90
2023-02-04T13:25:07.573Z,20.20
2023-02-04T13:27:43.024Z,19.00
2023-02-04T13:30:18.812Z,18.40
2023-02-04T13:32:49.020Z,17.90
2023-02-04T13:35:19.630Z,17.70
2023-02-04T13:37:47.530Z,17.40
2023-02-04T13:40:24.420Z,17.00
2023-02-04T13:42:52.357Z,16.80
2023-02-04T13:45:22.346Z,16.70
2023-02-04T13:47:50.458Z,16.30
2023-02-04T13:50:18.284Z,16.40
2023-02-04T13:52:46.055Z,16.10
2023-02-04T13:55:13.753Z,16.20
2023-02-04T13:57:41.409Z,16.00
2023-02-04T14:00:10.440Z,15.80
2023-02-04T14:02:40.728Z,15.60
2023-02-04T14:05:08.413Z,15.60
2023-02-04T14:07:35.915Z,15.80
2023-02-04T14:10:04.056Z,15.80
2023-02-04T14:12:31.636Z,15.70
2023-02-04T14:14:59.579Z,15.90
2023-02-04T14:17:27.212Z,15.80
2023-02-04T14:19:54.817Z,15.90
2023-02-04T14:22:22.493Z,15.70
2023-02-04T14:24:50.503Z,15.60
2023-02-04T14:27:18.190Z,15.60
2023-02-04T14:29:45.871Z,15.60
2023-02-04T14:32:13.448Z,15.50
2023-02-04T14:34:41.132Z,15.50
2023-02-04T14:37:08.706Z,15.60
2023-02-04T14:39:36.288Z,15.60
2023-02-04T14:42:05.361Z,15.40
2023-02-04T14:44:33.126Z,15.30
2023-02-04T14:47:00.691Z,15.30
2023-02-04T14:49:28.248Z,15.20
2023-02-04T14:51:57.075Z,14.90
2023-02-04T14:54:24.757Z,14.90
2023-02-04T14:56:52.701Z,15.10
2023-02-04T14:59:22.086Z,15.10
2023-02-04T15:01:49.688Z,15.20
2023-02-04T15:04:18.629Z,15.20
2023-02-04T15:06:46.324Z,15.10
2023-02-04T15:09:13.950Z,15.10
2023-02-04T15:11:44.889Z,14.90
2023-02-04T15:14:12.554Z,15.00
2023-02-04T15:16:42.106Z,14.80
2023-02-04T15:19:13.170Z,14.70
2023-02-04T15:21:40.789Z,14.60
2023-02-04T15:24:10.700Z,14.10
2023-02-04T15:26:38.988Z,13.90
2023-02-04T15:29:07.002Z,13.90
2023-02-04T15:31:34.735Z,13.80
2023-02-04T15:34:03.439Z,13.50
2023-02-04T15:36:31.511Z,13.20
2023-02-04T15:38:59.203Z,13.00
2023-02-04T15:41:26.901Z,12.80
2023-02-04T15:43:54.908Z,12.80
2023-02-04T15:46:22.507Z,12.90
2023-02-04T15:48:50.135Z,12.60
2023-02-04T15:51:17.850Z,12.50
2023-02-04T15:53:45.754Z,12.20
2023-02-04T15:56:13.329Z,12.30
2023-02-04T15:58:41.037Z,12.10
2023-02-04T16:01:16.215Z,12.10
2023-02-04T16:03:51.719Z,11.90
2023-02-04T16:06:19.504Z,11.70
2023-02-04T16:08:47.131Z,11.60
2023-02-04T16:11:15.150Z,11.60
2023-02-04T16:13:42.772Z,11.30
2023-02-04T16:16:10.639Z,11.10
2023-02-04T16:18:38.301Z,11.00
2023-02-04T16:21:06.067Z,11.10
2023-02-04T16:23:37.152Z,11.00
2023-02-04T16:26:14.283Z,11.00
2023-02-04T16:31:36.496Z,10.70
2023-02-04T16:47:05.726Z,10.00
2023-02-04T16:49:33.893Z,10.00
2023-02-04T16:52:07.223Z,9.80
2023-02-04T16:54:42.422Z,9.80
2023-02-04T16:57:10.236Z,9.80
2023-02-04T16:59:40.723Z,9.90
2023-02-04T17:02:09.629Z,9.70
2023-02-04T17:04:42.198Z,9.60
2023-02-04T17:07:09.763Z,9.50
2023-02-04T17:09:38.415Z,9.40
2023-02-04T17:12:06.105Z,9.30
2023-02-04T17:14:33.548Z,9.20
2023-02-04T17:17:01.041Z,9.20
2023-02-04T17:19:29.344Z,9.50
2023-02-04T17:21:56.802Z,9.50
2023-02-04T17:24:27.586Z,9.80
2023-02-04T17:26:58.036Z,10.10
2023-02-04T17:29:25.755Z,10.30
2023-02-04T17:31:53.371Z,10.50
2023-02-04T17:34:21.707Z,10.90
2023-02-04T17:36:49.274Z,11.20
2023-02-04T17:39:16.843Z,11.10
2023-02-04T17:41:44.407Z,11.40
2023-02-04T17:44:17.058Z,11.40
2023-02-04T17:46:48.292Z,11.50
2023-02-04T17:49:16.140Z,11.60
2023-02-04T17:51:43.976Z,11.40
2023-02-04T17:54:14.968Z,11.40
2023-02-04T17:56:42.526Z,11.50
2023-02-04T17:59:11.802Z,11.50
2023-02-04T18:01:41.629Z,11.50
2023-02-04T18:04:14.285Z,11.50
2023-02-04T18:06:41.910Z,11.50
2023-02-04T18:09:18.768Z,11.50
2023-02-04T18:11:46.491Z,11.70
2023-02-04T18:14:41.006Z,11.50
2023-02-04T18:17:12.600Z,11.60
2023-02-04T18:19:42.009Z,11.40
2023-02-04T18:22:14.741Z,11.50
2023-02-04T18:24:46.365Z,11.50
2023-02-04T18:27:35.833Z,11.50
2023-02-04T18:30:19.206Z,11.60
2023-02-04T18:32:47.884Z,11.40
2023-02-04T18:35:44.071Z,11.40
2023-02-04T18:38:39.746Z,11.40
2023-02-04T18:41:32.734Z,11.60
2023-02-04T18:44:44.856Z,11.50
2023-02-04T18:47:35.956Z,11.40
2023-02-04T18:50:36.018Z,11.40
2023-02-04T18:53:12.652Z,11.40
2023-02-04T18:55:47.786Z,11.30
2023-02-04T18:58:35.444Z,11.30
2023-02-04T19:01:28.868Z,11.40
2023-02-04T19:04:03.580Z,11.40
2023-02-04T19:07:08.178Z,11.50
2023-02-04T19:09:37.560Z,11.10
2023-02-04T19:12:22.649Z,11.30
2023-02-04T19:14:53.118Z,11.40
2023-02-04T19:17:27.071Z,11.30
2023-02-04T19:20:27.054Z,11.40
2023-02-04T19:22:55.070Z,11.40
2023-02-04T19:25:29.079Z,11.30
2023-02-04T19:28:14.537Z,11.20
2023-02-04T19:30:51.079Z,11.10
2023-02-04T19:33:45.705Z,11.20
2023-02-04T19:36:30.543Z,11.30
2023-02-04T19:39:02.341Z,11.20
2023-02-04T19:41:40.545Z,11.20
2023-02-04T19:44:39.359Z,11.20
2023-02-04T19:47:30.087Z,11.10
2023-02-04T19:50:09.631Z,11.10
2023-02-04T19:52:42.467Z,11.00
2023-02-04T19:55:19.105Z,11.00
2023-02-04T19:57:50.083Z,11.20
2023-02-04T20:00:36.291Z,11.00
2023-02-04T20:03:35.349Z,10.90
2023-02-04T20:06:09.710Z,11.00
2023-02-04T20:08:45.220Z,10.90
2023-02-04T20:11:18.638Z,10.70
2023-02-04T20:13:46.411Z,10.70
2023-02-04T20:16:41.582Z,10.50
2023-02-04T20:19:18.147Z,10.50
2023-02-04T20:21:55.906Z,10.50
2023-02-04T20:24:23.463Z,10.50
2023-02-04T20:26:53.017Z,10.50
2023-02-04T20:29:26.930Z,10.40
2023-02-04T20:31:55.842Z,10.60
2023-02-04T20:34:24.224Z,10.30
2023-02-04T20:36:52.369Z,10.40
2023-02-04T20:39:39.867Z,10.50
2023-02-04T20:42:22.538Z,10.60
2023-02-04T20:44:50.468Z,10.60
2023-02-04T20:47:23.299Z,10.40
2023-02-04T20:49:59.533Z,10.20
2023-02-04T20:52:48.505Z,10.00
2023-02-04T20:55:31.519Z,9.80
2023-02-04T20:58:11.606Z,9.60
2023-02-04T21:00:40.355Z,9.50
2023-02-04T21:03:56.109Z,9.30
2023-02-04T21:06:43.260Z,9.10
2023-02-04T21:09:27.216Z,8.70
2023-02-04T21:11:59.503Z,8.70
2023-02-04T21:14:28.866Z,8.70
2023-02-04T21:17:01.769Z,8.50
2023-02-04T21:19:30.819Z,8.60
2023-02-04T21:21:59.058Z,8.50
2023-02-04T21:24:27.334Z,8.30
2023-02-04T21:26:55.135Z,8.30
2023-02-04T21:29:23.034Z,8.30
2023-02-04T21:31:50.987Z,8.30
2023-02-04T21:34:21.734Z,8.40
2023-02-04T21:36:49.426Z,8.60
2023-02-04T21:39:20.394Z,8.70
2023-02-04T21:41:48.146Z,8.90
2023-02-04T21:44:15.730Z,8.90
2023-02-04T21:46:43.529Z,9.00
2023-02-04T21:49:11.496Z,9.10
2023-02-04T21:51:39.016Z,9.00
2023-02-04T21:54:07.025Z,9.00
2023-02-04T21:56:38.051Z,8.90
2023-02-04T21:59:06.771Z,9.00
2023-02-04T22:01:36.003Z,8.90
2023-02-04T22:04:03.737Z,8.80
2023-02-04T22:06:32.112Z,8.60
2023-02-04T22:09:00.118Z,8.70
2023-02-04T22:11:27.750Z,8.70
2023-02-04T22:14:13.586Z,8.70
2023-02-04T22:16:41.402Z,8.70
2023-02-04T22:19:08.992Z,8.60
2023-02-04T22:21:37.462Z,8.60
2023-02-04T22:24:08.628Z,8.50
2023-02-04T22:26:36.649Z,8.40
2023-02-04T22:29:07.997Z,8.50
2023-02-04T22:32:21.676Z,8.40
2023-02-04T22:35:18.069Z,8.30
2023-02-04T22:37:45.759Z,8.20
2023-02-04T22:40:14.160Z,8.30
2023-02-04T22:42:41.760Z,8.30
2023-02-04T22:45:11.325Z,8.20
2023-02-04T22:47:49.660Z,8.20
2023-02-04T22:50:17.310Z,8.30
2023-02-04T22:52:45.061Z,8.20
2023-02-04T22:55:13.053Z,8.20
2023-02-04T22:57:58.915Z,8.20
2023-02-04T23:00:29.896Z,8.10
2023-02-04T23:03:00.869Z,8.20
2023-02-04T23:05:28.796Z,8.20
2023-02-04T23:07:56.511Z,8.20
2023-02-04T23:10:39.504Z,8.20
2023-02-04T23:13:22.606Z,8.10
2023-02-04T23:15:56.228Z,8.10
2023-02-04T23:18:23.878Z,8.00
2023-02-04T23:20:51.578Z,8.00
2023-02-04T23:23:19.401Z,8.10
2023-02-04T23:25:48.822Z,8.00
2023-02-04T23:28:17.228Z,8.10
2023-02-04T23:30:45.242Z,8.10
2023-02-04T23:33:12.843Z,8.00
2023-02-04T23:35:40.424Z,8.00
2023-02-04T23:38:10.825Z,7.90
2023-02-04T23:40:38.457Z,7.90
2023-02-04T23:43:06.830Z,8.00
2023-02-04T23:45:35.317Z,8.00
2023-02-04T23:48:06.495Z,7.80
2023-02-04T23:50:35.239Z,7.90
2023-02-04T23:53:03.316Z,7.90
2023-02-04T23:55:30.954Z,7.90
2023-02-04T23:58:05.329Z,7.90
